Flight Track Log - Related Links

Times and Time Zones

All times are in EDT time to prevent confusion due to time zone crossing. See the N560HM flight status page for this flight to view local times or setup timezone preferences in your user account.

Time Position Orientation Groundspeed Altitude Reporting Facility
EDT Latitude Longitude Course Direction KTS MPH feet Rate Location/Type
Sun 09:55:56 AM 27.1664 -80.1789 108° East 181 208 1,300  Level Miami Center
Sun 09:56:56 AM 27.1469 -80.1106 108° East 218 251 2,500 1,550 Climbing Miami Center
Sun 09:57:56 AM 27.1936 -80.0744 35° Northeast 281 323 4,400 1,250 Climbing Miami Center
Sun 09:58:56 AM 27.2342 -80.1342 307° West 194 223 5,000 400 Climbing Miami Center
Sun 09:59:56 AM 27.2342 -80.2228 270° West 222 255 5,200 1,100 Climbing Miami Center
Sun 10:00:56 AM 27.2428 -80.3050 277° West 251 289 7,200 2,250 Climbing Miami Center
Sun 10:01:56 AM 27.2531 -80.3917 278° West 278 320 9,700 2,600 Climbing Miami Center
Sun 10:02:56 AM 27.2636 -80.4714 278° West 278 320 12,400 2,550 Climbing Miami Center
Sun 10:03:56 AM 27.3164 -80.5361 313° West 278 320 14,800 2,450 Climbing Miami Center
Sun 10:04:56 AM 27.3986 -80.5878 331° Northwest 287 330 17,300 1,900 Climbing Miami Center
Sun 10:05:56 AM 27.4642 -80.6344 328° Northwest 301 346 18,600 1,450 Climbing Miami Center
Sun 10:06:56 AM 27.5461 -80.6864 331° Northwest 321 369 20,200 1,650 Climbing Miami Center
Sun 10:07:56 AM 27.6283 -80.7383 331° Northwest 327 376 21,900 1,500 Climbing Miami Center
Sun 10:08:56 AM 27.7164 -80.7975 329° Northwest 333 383 23,200 1,600 Climbing Miami Center
Sun 10:09:56 AM 27.7906 -80.8422 332° Northwest 333 383 25,100 1,550 Climbing Miami Center
Sun 10:10:56 AM 27.8897 -80.8717 345° North 340 391 26,300 1,250 Climbing Miami Center
Sun 10:11:56 AM 27.9872 -80.8964 347° North 350 403 27,600 1,300 Climbing Miami Center
Sun 10:12:56 AM 28.0867 -80.9208 348° North 357 411 28,900 1,400 Climbing Miami Center
Sun 10:13:56 AM 28.1861 -80.9481 346° North 357 411 30,400 1,300 Climbing Miami Center
Sun 10:14:56 AM 28.2794 -80.9703 348° North 352 405 31,500 1,100 Climbing Miami Center
Sun 10:15:56 AM 28.3808 -80.9953 348° North 357 411 32,600 1,277 Climbing Miami Center
Sun 10:16:30 AM 28.4431 -81.0133 346° North 366 421 33,500 1,468 Climbing Jacksonville Center
Sun 10:17:30 AM 28.5394 -81.0400 346° North 366 421 34,900 1,450 Climbing Jacksonville Center
Sun 10:18:30 AM 28.6336 -81.0642 347° North 353 406 36,400 1,400 Climbing Jacksonville Center
Sun 10:19:30 AM 28.7258 -81.0886 347° North 346 398 37,700 1,050 Climbing Jacksonville Center
Sun 10:20:30 AM 28.8158 -81.1106 348° North 335 386 38,500 650 Climbing Jacksonville Center
Sun 10:21:30 AM 28.9122 -81.1350 347° North 341 392 39,000 500 Climbing Jacksonville Center
Sun 10:22:30 AM 29.0086 -81.1594 347° North 346 398 39,500 500 Climbing Jacksonville Center
Sun 10:23:30 AM 29.1092 -81.1861 347° North 357 411 40,000 500 Climbing Jacksonville Center
Sun 10:24:30 AM 29.2075 -81.2131 347° North 357 411 40,500 500 Climbing Jacksonville Center
Sun 10:25:30 AM 29.3058 -81.2400 347° North 357 411 41,000 250 Climbing Jacksonville Center
Sun 10:26:30 AM 29.4086 -81.2619 349° North 357 411 41,000  Level Jacksonville Center
Sun 10:27:30 AM 29.5111 -81.2936 345° North 362 417 41,000  Level Jacksonville Center
Sun 10:28:30 AM 29.6158 -81.3231 346° North 373 429 41,000  Level Jacksonville Center
Sun 10:29:30 AM 29.7228 -81.3475 349° North 378 435 41,000  Level Jacksonville Center
Sun 10:30:30 AM 29.8294 -81.3769 347° North 383 441 41,000  Level Jacksonville Center
Sun 10:31:30 AM 29.9364 -81.4042 348° North 383 441 41,000  Level Jacksonville Center
Sun 10:32:30 AM 30.0411 -81.4314 347° North 383 441 41,000  Level Jacksonville Center
Sun 10:33:30 AM 30.1458 -81.4586 347° North 383 441 41,000  Level Jacksonville Center
Sun 10:34:30 AM 30.2503 -81.4858 347° North 383 441 41,000  Level Jacksonville Center
Sun 10:35:30 AM 30.3592 -81.5058 351° North 383 441 41,000  Level Jacksonville Center
Sun 10:36:30 AM 30.4739 -81.4850 North 392 451 41,000  Level Jacksonville Center
Sun 10:37:30 AM 30.5881 -81.4375 20° North 409 471 41,000  Level Jacksonville Center
Sun 10:38:30 AM 30.7003 -81.3947 18° North 414 476 41,000  Level Jacksonville Center
Sun 10:39:30 AM 30.8147 -81.3492 19° North 419 482 41,000  Level Jacksonville Center
Sun 10:40:30 AM 30.9289 -81.3014 20° North 429 494 41,000  Level Jacksonville Center
Sun 10:41:30 AM 31.0411 -81.2558 19° North 424 488 41,000  Level Jacksonville Center
Sun 10:42:30 AM 31.1553 -81.2103 19° North 417 480 41,000  Level Jacksonville Center
Sun 10:43:30 AM 31.2653 -81.1644 20° North 422 486 41,000  Level Jacksonville Center
Sun 10:44:30 AM 31.3775 -81.1161 20° North 429 494 41,000  Level Jacksonville Center
Sun 10:45:30 AM 31.4894 -81.0703 19° North 424 488 41,000  Level Jacksonville Center
Sun 10:46:30 AM 31.5911 -81.0292 19° North 430 495 41,000  Level Jacksonville Center
Sun 10:47:30 AM 31.7136 -80.9778 20° North 424 488 41,000  Level Jacksonville Center
Sun 10:48:30 AM 31.8278 -80.9314 19° North 424 488 41,000  Level Jacksonville Center
Sun 10:49:30 AM 31.9439 -80.8825 20° North 424 488 41,000 -50 Level Jacksonville Center
Sun 10:50:30 AM 32.0558 -80.8358 19° North 430 495 40,900 -450 Descending Jacksonville Center
Sun 10:51:30 AM 32.1594 -80.7919 20° North 430 495 40,100 -650 Descending Jacksonville Center
Sun 10:52:30 AM 32.2717 -80.7475 19° North 430 495 39,600 -550 Descending Jacksonville Center
Sun 10:53:30 AM 32.3814 -80.7008 20° North 424 488 39,000 -300 Descending Jacksonville Center
Sun 10:54:30 AM 32.4892 -80.6539 20° North 424 488 39,000  Level Jacksonville Center
Sun 10:55:31 AM 32.5969 -80.6092 19° North 418 481 39,000  Level Jacksonville Center
Sun 10:56:30 AM 32.7086 -80.5619 20° North 418 481 39,000  Level Jacksonville Center
Sun 10:57:30 AM 32.8186 -80.5172 19° North 418 481 39,000  Level Jacksonville Center
Sun 10:58:30 AM 32.9303 -80.4672 21° North 418 481 39,000  Level Jacksonville Center
Sun 10:59:30 AM 33.0547 -80.4192 18° North 425 489 39,000  Level Jacksonville Center
Sun 11:00:30 AM 33.1600 -80.3692 22° Northeast 433 498 39,000  Level Jacksonville Center
Sun 11:01:30 AM 33.2842 -80.3183 19° North 433 498 39,000  Level Jacksonville Center
Sun 11:02:30 AM 33.3961 -80.2703 20° North 427 491 39,000  Level Jacksonville Center
Sun 11:03:30 AM 33.5075 -80.2197 21° North 427 491 39,000  Level Jacksonville Center
Sun 11:04:30 AM 33.6214 -80.1714 19° North 427 491 39,000  Level Jacksonville Center
Sun 11:05:30 AM 33.7350 -80.1206 20° North 427 491 39,000  Level Jacksonville Center
Sun 11:06:30 AM 33.8508 -80.0717 19° North 427 491 39,000  Level Jacksonville Center
Sun 11:08:22 AM 34.0408 -79.9900 20° North 402 463 39,000  Level Washington Center
Sun 11:09:23 AM 34.1661 -79.9339 20° North 407 468 39,000  Level Washington Center
Sun 11:10:23 AM 34.2681 -79.8839 22° Northeast 424 488 39,000  Level Washington Center
Sun 11:11:22 AM 34.3822 -79.8372 19° North 430 495 39,000  Level Washington Center
Sun 11:12:24 AM 34.4947 -79.7850 21° North 435 501 39,000  Level Washington Center
Sun 11:13:22 AM 34.6069 -79.7378 19° North 435 501 39,000  Level Washington Center
Sun 11:14:23 AM 34.7211 -79.6906 19° North 430 495 39,000  Level Washington Center
Sun 11:15:24 AM 34.8358 -79.6381 21° North 430 495 39,000  Level Washington Center
Sun 11:16:22 AM 34.9481 -79.5881 20° North 435 501 39,000  Level Washington Center
Sun 11:17:22 AM 35.0603 -79.5378 20° North 430 495 39,000  Level Washington Center
Sun 11:18:23 AM 35.1744 -79.4872 20° North 430 495 39,000  Level Washington Center
Sun 11:19:23 AM 35.2889 -79.4344 21° North 430 495 39,000  Level Washington Center
Sun 11:20:23 AM 35.4158 -79.3794 19° North 435 501 39,000  Level Washington Center
Sun 11:21:24 AM 35.5281 -79.3258 21° North 429 494 39,000  Level Washington Center
Sun 11:22:24 AM 35.6317 -79.2822 19° North 434 499 39,000  Level Washington Center
Sun 11:23:21 AM 35.7461 -79.2286 21° North 434 499 39,000  Level Washington Center
Sun 11:24:22 AM 35.8708 -79.1728 20° North 434 499 39,000  Level Washington Center
Sun 11:25:23 AM 35.9872 -79.1217 20° North 434 499 39,000  Level Washington Center
Sun 11:26:24 AM 36.1014 -79.0703 20° North 434 499 39,000  Level Washington Center
Sun 11:27:22 AM 36.2156 -79.0211 19° North 429 494 39,000  Level Washington Center
Sun 11:28:22 AM 36.3339 -78.9672 20° North 434 499 39,000  Level Washington Center
Sun 11:29:23 AM 36.4500 -78.9178 19° North 434 499 39,000  Level Washington Center
Sun 11:30:23 AM 36.5661 -78.8658 20° North 434 499 39,000  Level Washington Center
Sun 11:31:24 AM 36.6761 -78.8111 22° Northeast 434 499 39,000  Level Washington Center
Sun 11:32:22 AM 36.7819 -78.7608 21° North 434 499 39,000  Level Washington Center
Sun 11:33:22 AM 36.8936 -78.7111 20° North 434 499 39,000  Level Washington Center
Sun 11:34:24 AM 37.0056 -78.6608 20° North 434 499 39,000  Level Washington Center
Sun 11:35:21 AM 37.1322 -78.6033 20° North 434 499 39,000  Level Washington Center
Sun 11:36:22 AM 37.2439 -78.5531 20° North 434 499 39,000  Level Washington Center
Sun 11:37:23 AM 37.3558 -78.5050 19° North 434 499 39,000  Level Washington Center
Sun 11:38:24 AM 37.4697 -78.4519 20° North 434 499 39,000 -99 Level Washington Center
Sun 11:39:24 AM 37.5731 -78.4061 19° North 434 499 38,800 -403 Descending Washington Center
Sun 11:40:23 AM 37.6869 -78.3525 20° North 434 499 38,200 -407 Descending Washington Center
Sun 11:41:22 AM 37.8008 -78.2989 20° North 434 499 38,000 -100 Descending Washington Center
Sun 11:42:23 AM 37.9272 -78.2428 19° North 434 499 38,000  Level Washington Center
Sun 11:43:24 AM 38.0242 -78.1961 21° North 429 494 38,000 -403 Level Washington Center
Sun 11:44:22 AM 38.1358 -78.1419 21° North 422 486 37,200 -508 Descending Washington Center
Sun 11:45:22 AM 38.2536 -78.0878 20° North 428 493 37,000 -100 Descending Washington Center
Sun 11:46:22 AM 38.3758 -78.0283 21° North 441 507 37,000  Level Washington Center
Sun 11:47:23 AM 38.4958 -77.9739 20° North 451 519 37,000  Level Washington Center
Sun 11:48:24 AM 38.6200 -77.9142 21° North 451 519 37,000  Level Washington Center
Sun 11:49:24 AM 38.7356 -77.8592 20° North 451 519 37,000  Level Washington Center
Sun 11:50:23 AM 38.8703 -77.7939 21° North 451 519 37,000  Level Washington Center
Sun 11:51:24 AM 38.9756 -77.7436 20° North 451 519 37,000  Level Washington Center
Sun 11:52:24 AM 39.1100 -77.6808 20° North 451 519 37,000  Level Washington Center
Sun 11:53:22 AM 39.2278 -77.6225 21° North 451 519 37,000  Level Washington Center
Sun 11:55:15 AM 39.4428 -77.5194 20° North 451 519 37,000  Level New York Center
Sun 11:56:18 AM 39.5650 -77.4608 20° North 456 525 37,000  Level New York Center
Sun 11:57:16 AM 39.6831 -77.4019 21° North 461 531 37,000  Level New York Center
Sun 11:58:17 AM 39.8033 -77.3431 21° North 461 531 37,000 -600 Level New York Center
Sun 11:59:16 AM 39.9189 -77.2861 21° North 461 531 35,800 -966 Descending New York Center
Sun 12:00:15 PM 40.0369 -77.2267 21° North 456 525 35,100 -694 Descending New York Center
Sun 12:01:17 PM 40.1678 -77.1572 22° Northeast 456 525 34,400 -1,041 Descending New York Center
Sun 12:02:16 PM 40.2919 -77.0981 20° North 461 531 33,000 -1,550 Descending New York Center
Sun 12:03:17 PM 40.4139 -77.0383 20° North 461 531 31,300 -1,866 Descending New York Center
Sun 12:04:15 PM 40.5297 -76.9806 21° North 461 531 29,300 -2,034 Descending New York Center
Sun 12:05:15 PM 40.6431 -76.9250 20° North 448 516 27,300 -1,983 Descending New York Center
Sun 12:06:16 PM 40.7522 -76.8664 22° Northeast 442 509 25,300 -1,951 Descending New York Center
Sun 12:07:18 PM 40.8592 -76.8128 21° North 422 486 23,300 -1,916 Descending New York Center
Sun 12:08:15 PM 40.9642 -76.7589 21° North 411 473 21,500 -1,831 Descending New York Center
Sun 12:09:16 PM 41.0667 -76.7072 21° North 399 459 19,700 -1,721 Descending New York Center
Sun 12:10:17 PM 41.1653 -76.6553 22° Northeast 393 452 18,000 -1,600 Descending New York Center
Sun 12:11:16 PM 41.2550 -76.6081 22° Northeast 380 437 16,500 -1,424 Descending New York Center
Sun 12:12:15 PM 41.3511 -76.5611 20° North 374 430 15,200 -750 Descending New York Center
Sun 12:13:16 PM 41.4558 -76.5064 21° North 364 419 15,000 -98 Descending New York Center
Sun 12:14:17 PM 41.5478 -76.4561 22° Northeast 353 406 15,000 -298 Level New York Center
Sun 12:15:17 PM 41.6289 -76.4158 20° North 332 382 14,400 -1,169 Descending New York Center
Sun 12:16:15 PM 41.7014 -76.3775 22° Northeast 318 366 12,700 -1,866 Descending New York Center
Sun 12:17:16 PM 41.7847 -76.3344 21° North 313 360 10,700 -2,049 Descending New York Center
Sun 12:18:18 PM 41.8636 -76.2936 21° North 294 338 8,500 -2,067 Descending New York Center
Sun 12:19:15 PM 41.9300 -76.2517 25° Northeast 271 312 6,600 -1,866 Descending New York Center
Sun 12:20:17 PM 41.9825 -76.2003 36° Northeast 250 288 4,800 -1,300 Descending New York Center
Sun 12:21:15 PM 42.0281 -76.1564 36° Northeast 226 260 4,000 -650 Descending New York Center
Sun 12:22:17 PM 42.0806 -76.1050 36° Northeast 226 260 3,500 -541 Descending New York Center
Sun 12:23:17 PM 42.1283 -76.0583 36° Northeast 226 260 2,900 -303 Descending New York Center
Sun 12:24:16 PM 42.1517 -75.9989 62° Northeast 199 229 2,900 -403 Level New York Center
Sun 12:25:16 PM 42.1764 -75.9617 48° Northeast 167 192 2,100 6,000 Descending New York Center
Sun 12:26:17 PM 42.2103 -75.8997 54° Northeast 167 192 15,000 6,504 Climbing New York Center
Sun 12:27:15 PM 42.2392 -75.8544 49° Northeast 167 192 15,000  Level New York Center
Sun 12:28:16 PM 42.2664 -75.8061 53° Northeast 167 192 15,000  Level New York Center
Sun 12:29:16 PM 42.2953 -75.7608 49° Northeast 167 192 15,000  Level New York Center
Sun 12:31:00 PM 42.2000 -75.9667 248° West  Level FlightAware Approximate

Login

Don't have an account? Register now (free) for customized features, flight alerts, and more!